Loggieville, Canada
Current Conditions -  °F | °C
As of 5:00 AM on Thursday 23 Oct 2014 (Local Time) from CZBF Reporting Station
Overcast Overcast  
Wind Chill: 38°   Ceiling: 800
Heat Index: 43°   Visibility: 15mi
Dew Point: 39°   Wind: 8mph
Humidity: 87%   Direction: 40°NE
Pressure: 30.34"   Gusts: NA
Location:  47.07°N, 65.38°W
Report Text: CZBF 230800Z 04007KT 020V090 15SM OVC008 06/04 A3034 RMK SC8 SLP277
Loading
Personal Weather Stations






























Interactive Weather Map
Tropical Storm Tracking
New forecast layout! Learn more

10-Day Weather Forecast

Advertisements
Track Severe Weather on mobile